Time;durP1;ratioP1;P1;durP2;ratioP2;P2;SDS_P1;SDS_P2;PMS_P1;PMS_P2;Temp;Humidity;BMP_temperature;BMP_pressure;BME280_temperature;BME280_humidity;BME280_pressure;Samples;Min_cycle;Max_cycle;Signal;HPM_P1;HPM_P2
2023/05/20 00:00:29;;;;;;;23.85;14.93;;;;;;;11.14;76.39;99363.28;5050034;28;20024;-71
2023/05/20 00:02:56;;;;;;;21.05;14.13;;;;;;;11.12;76.42;99353.69;5053119;28;20059;-72
2023/05/20 00:05:22;;;;;;;22.17;14.43;;;;;;;11.13;76.58;99360.81;5053499;28;20060;-72
2023/05/20 00:07:47;;;;;;;23.75;14.70;;;;;;;11.09;76.32;99355.03;5053535;28;20069;-72
2023/05/20 00:10:12;;;;;;;22.20;13.98;;;;;;;11.07;76.33;99351.75;5053324;28;20178;-71
2023/05/20 00:12:38;;;;;;;23.65;14.88;;;;;;;11.08;77.02;99349.84;5053409;28;20025;-72
2023/05/20 00:15:04;;;;;;;22.92;14.80;;;;;;;11.07;77.01;99349.00;5053232;28;20017;-72
2023/05/20 00:17:30;;;;;;;23.02;14.32;;;;;;;11.05;76.52;99342.16;5053400;28;20558;-72
2023/05/20 00:19:55;;;;;;;23.60;14.98;;;;;;;11.04;76.45;99343.25;5053390;28;20025;-72
2023/05/20 00:22:21;;;;;;;21.95;15.35;;;;;;;11.04;76.25;99343.25;5053504;28;20035;-72
2023/05/20 00:24:46;;;;;;;22.05;14.02;;;;;;;11.05;76.83;99342.97;5052893;28;20163;-73
2023/05/20 00:27:11;;;;;;;22.45;14.70;;;;;;;11.05;76.82;99334.72;5053014;28;20166;-72
2023/05/20 00:29:37;;;;;;;23.27;14.73;;;;;;;11.05;77.10;99344.91;5052819;28;20023;-71
2023/05/20 00:32:02;;;;;;;24.63;15.10;;;;;;;11.04;76.63;99340.50;5053139;28;20487;-72
2023/05/20 00:34:28;;;;;;;23.25;14.75;;;;;;;11.05;77.46;99339.41;5052816;28;20091;-71
2023/05/20 00:36:53;;;;;;;25.42;15.43;;;;;;;11.03;76.66;99336.94;5052884;28;20061;-72
2023/05/20 00:39:18;;;;;;;25.42;15.75;;;;;;;11.05;76.98;99333.94;5052634;28;20052;-72
2023/05/20 00:41:44;;;;;;;24.75;16.30;;;;;;;11.06;76.37;99332.81;5052963;28;20056;-72
2023/05/20 00:44:09;;;;;;;25.42;16.15;;;;;;;11.08;76.85;99330.63;5052288;28;20035;-72
2023/05/20 00:46:35;;;;;;;24.17;15.45;;;;;;;11.08;76.81;99334.19;5052743;28;20100;-71
2023/05/20 00:49:01;;;;;;;24.90;15.35;;;;;;;11.08;77.06;99327.88;5052638;28;20489;-72
2023/05/20 00:51:26;;;;;;;24.98;15.10;;;;;;;11.08;76.55;99320.47;5052727;28;20064;-71
2023/05/20 00:53:54;;;;;;;25.75;14.60;;;;;;;11.08;76.90;99323.19;5052616;28;20029;-71
2023/05/20 00:56:20;;;;;;;26.00;15.23;;;;;;;11.06;76.33;99319.09;5052529;28;20035;-71
2023/05/20 00:58:46;;;;;;;24.30;14.75;;;;;;;11.03;76.72;99323.22;5052618;28;20024;-71
2023/05/20 01:01:12;;;;;;;22.50;13.73;;;;;;;11.01;76.53;99329.00;5052681;28;20017;-71
2023/05/20 01:03:37;;;;;;;21.52;13.70;;;;;;;10.98;76.33;99326.00;5052212;28;20417;-72
2023/05/20 01:06:03;;;;;;;25.67;14.57;;;;;;;10.97;76.69;99318.84;5051156;28;20634;-72
2023/05/20 01:08:28;;;;;;;26.23;15.15;;;;;;;10.95;76.59;99319.13;5052086;28;20051;-71
2023/05/20 01:11:33;;;;;;;22.13;13.45;;;;;;;10.94;76.82;99324.91;5053517;28;20110;-71
2023/05/20 01:14:05;;;;;;;22.27;14.93;;;;;;;10.95;76.67;99330.09;5051790;28;20116;-71
2023/05/20 01:16:32;;;;;;;22.70;13.88;;;;;;;10.90;76.56;99327.34;5052260;28;20482;-71
2023/05/20 01:18:59;;;;;;;22.10;14.35;;;;;;;10.84;77.24;99325.72;5052122;28;20169;-71
2023/05/20 01:21:26;;;;;;;21.30;13.25;;;;;;;10.78;76.87;99322.16;5052016;28;20029;-71
2023/05/20 01:23:51;;;;;;;22.88;14.23;;;;;;;10.75;76.93;99327.41;5052558;28;20025;-72
2023/05/20 01:26:18;;;;;;;23.80;15.07;;;;;;;10.75;77.40;99328.19;5051735;28;20090;-71
2023/05/20 01:28:44;;;;;;;24.35;14.63;;;;;;;10.77;77.17;99330.69;5052102;28;20025;-71
2023/05/20 01:31:31;;;;;;;23.13;14.27;;;;;;;10.77;77.02;99320.53;5050397;28;20028;-71
2023/05/20 01:33:58;;;;;;;24.00;13.82;;;;;;;10.81;77.39;99329.00;5051417;28;20021;-71
2023/05/20 01:36:26;;;;;;;21.58;13.52;;;;;;;10.83;77.51;99324.06;5051601;28;20025;-72
2023/05/20 01:38:52;;;;;;;22.33;13.88;;;;;;;10.84;77.07;99331.19;5051793;28;20074;-71
2023/05/20 01:41:19;;;;;;;23.92;13.93;;;;;;;10.81;77.21;99318.88;5051416;28;20037;-71
2023/05/20 01:43:45;;;;;;;23.70;14.30;;;;;;;10.84;77.14;99318.31;5051794;28;20040;-71
2023/05/20 01:46:10;;;;;;;25.23;14.50;;;;;;;10.84;77.70;99320.22;5051497;28;20063;-72
2023/05/20 01:48:37;;;;;;;23.75;13.20;;;;;;;10.84;77.14;99328.47;5051504;28;20025;-72
2023/05/20 01:51:02;;;;;;;22.77;14.40;;;;;;;10.79;77.61;99328.50;5051184;28;20032;-72
2023/05/20 01:53:28;;;;;;;23.30;13.98;;;;;;;10.79;77.36;99339.47;5051618;28;20016;-71
2023/05/20 01:55:53;;;;;;;22.40;13.13;;;;;;;10.79;77.01;99331.22;5051155;28;20013;-71
2023/05/20 01:58:19;;;;;;;23.17;14.07;;;;;;;10.79;77.93;99323.00;5051162;28;20024;-72
2023/05/20 02:00:44;;;;;;;22.58;14.13;;;;;;;10.78;77.43;99330.41;5051281;28;20021;-71
2023/05/20 02:03:10;;;;;;;24.88;13.98;;;;;;;10.80;77.48;99325.47;5051161;28;20020;-71
2023/05/20 02:05:35;;;;;;;22.42;12.93;;;;;;;10.80;77.63;99332.88;5051153;28;20116;-72
2023/05/20 02:08:00;;;;;;;23.55;13.75;;;;;;;10.82;77.64;99333.41;5050993;28;20112;-72
2023/05/20 02:10:26;;;;;;;24.30;13.20;;;;;;;10.80;77.32;99330.94;5051081;28;20465;-72
2023/05/20 02:12:51;;;;;;;24.92;13.98;;;;;;;10.80;77.15;99328.19;5051423;28;20017;-71
2023/05/20 02:15:16;;;;;;;25.30;14.05;;;;;;;10.80;77.69;99321.91;5050981;28;20036;-72
2023/05/20 02:17:45;;;;;;;23.33;13.57;;;;;;;10.82;77.26;99327.91;5050911;28;20098;-71
2023/05/20 02:20:12;;;;;;;23.65;14.30;;;;;;;10.81;77.59;99326.25;5047226;28;20075;-73
2023/05/20 02:22:38;;;;;;;24.73;14.43;;;;;;;10.82;77.36;99325.16;5050860;28;20025;-72
2023/05/20 02:25:04;;;;;;;22.98;13.40;;;;;;;10.86;77.58;99331.75;5050819;28;20025;-72
2023/05/20 02:27:30;;;;;;;22.35;13.75;;;;;;;10.87;77.75;99328.75;5050880;28;20028;-72
2023/05/20 02:29:58;;;;;;;25.08;14.30;;;;;;;10.90;77.28;99330.09;5050670;28;20385;-72
2023/05/20 02:32:26;;;;;;;23.92;13.77;;;;;;;10.93;76.96;99332.28;5050804;28;20021;-72
2023/05/20 02:34:53;;;;;;;22.83;13.68;;;;;;;10.94;77.67;99328.44;5050884;28;20029;-71
2023/05/20 02:37:18;;;;;;;25.95;14.65;;;;;;;10.95;76.73;99324.59;5051192;28;20100;-72
2023/05/20 02:39:44;;;;;;;24.40;13.88;;;;;;;10.95;77.39;99335.59;5050543;28;20390;-72
2023/05/20 02:42:09;;;;;;;24.70;14.55;;;;;;;10.98;77.35;99336.97;5051072;28;20028;-71
2023/05/20 02:44:35;;;;;;;24.13;14.55;;;;;;;10.98;77.29;99334.22;5050477;28;20037;-71
2023/05/20 02:47:00;;;;;;;24.42;13.32;;;;;;;10.96;77.46;99334.47;5050444;28;20382;-72
2023/05/20 02:49:25;;;;;;;24.92;14.75;;;;;;;10.97;76.75;99338.06;5050500;28;20021;-72
2023/05/20 02:51:51;;;;;;;24.20;14.43;;;;;;;10.98;77.24;99336.97;5046740;28;20021;-72
2023/05/20 02:54:16;;;;;;;25.73;15.38;;;;;;;10.98;76.75;99324.06;5050457;28;20359;-72
2023/05/20 02:56:41;;;;;;;27.25;15.68;;;;;;;10.97;76.81;99330.66;5050592;28;20025;-72
2023/05/20 02:59:07;;;;;;;26.23;15.40;;;;;;;10.97;76.78;99325.16;5050483;28;20021;-71
2023/05/20 03:01:34;;;;;;;24.75;14.43;;;;;;;10.95;77.42;99324.59;5050526;28;20062;-72
2023/05/20 03:04:01;;;;;;;24.45;14.57;;;;;;;10.96;76.92;99329.00;5050334;28;20028;-72
2023/05/20 03:06:28;;;;;;;27.58;15.00;;;;;;;10.96;76.84;99325.44;5050519;28;20063;-72
2023/05/20 03:08:54;;;;;;;25.70;14.80;;;;;;;10.95;76.90;99323.78;5054345;28;20025;-71
2023/05/20 03:11:20;;;;;;;26.58;14.77;;;;;;;10.94;77.71;99333.94;5054353;28;20021;-72
2023/05/20 03:13:46;;;;;;;24.30;14.85;;;;;;;10.96;77.24;99336.44;5054480;28;20104;-72
2023/05/20 03:16:11;;;;;;;26.85;14.95;;;;;;;10.96;77.58;99333.69;5054343;28;20152;-71
2023/05/20 03:18:37;;;;;;;25.27;14.40;;;;;;;10.95;77.34;99332.03;5054342;28;20368;-72
2023/05/20 03:21:03;;;;;;;24.50;14.05;;;;;;;10.94;77.63;99333.13;5054035;28;20081;-72
2023/05/20 03:23:28;;;;;;;27.00;15.00;;;;;;;10.93;76.84;99336.97;5054470;28;20021;-72
2023/05/20 03:25:54;;;;;;;27.75;15.45;;;;;;;10.93;76.89;99337.78;5054285;28;20412;-72
2023/05/20 03:28:19;;;;;;;26.58;14.80;;;;;;;10.93;77.31;99332.28;5054346;28;20025;-71
2023/05/20 03:30:45;;;;;;;26.23;14.93;;;;;;;10.92;77.13;99327.91;5054499;28;20507;-71
2023/05/20 03:33:10;;;;;;;28.67;14.88;;;;;;;10.92;77.50;99333.38;5054021;28;20048;-71
2023/05/20 03:35:36;;;;;;;28.75;16.38;;;;;;;10.92;77.67;99332.59;5053995;28;20025;-71
2023/05/20 03:38:01;;;;;;;30.08;16.67;;;;;;;10.92;77.39;99333.38;5054131;28;20017;-71
2023/05/20 03:40:27;;;;;;;27.80;15.13;;;;;;;10.92;78.06;99336.13;5053604;28;20108;-71
2023/05/20 03:42:52;;;;;;;29.35;16.40;;;;;;;10.89;77.51;99328.44;5053680;28;20025;-72
2023/05/20 03:45:18;;;;;;;28.25;15.50;;;;;;;10.89;77.36;99333.94;5053772;28;20017;-72
2023/05/20 03:47:43;;;;;;;28.80;15.32;;;;;;;10.86;77.72;99329.84;5052583;28;20021;-72
2023/05/20 03:50:09;;;;;;;29.30;16.35;;;;;;;10.87;77.78;99327.91;5053823;28;20017;-72
2023/05/20 03:52:35;;;;;;;28.77;15.63;;;;;;;10.87;77.40;99336.13;5053746;28;20028;-72
2023/05/20 03:55:01;;;;;;;30.73;16.10;;;;;;;10.85;77.45;99333.69;5054095;28;20029;-71
2023/05/20 03:57:28;;;;;;;26.65;15.02;;;;;;;10.85;77.96;99325.44;5053498;28;21356;-72
2023/05/20 03:59:53;;;;;;;26.67;15.15;;;;;;;10.85;78.22;99322.72;5053498;28;20079;-72
2023/05/20 04:02:19;;;;;;;25.73;14.82;;;;;;;10.84;78.06;99329.28;5053597;28;20009;-72
2023/05/20 04:04:45;;;;;;;24.17;14.20;;;;;;;10.85;77.60;99338.34;5053460;28;20025;-71
2023/05/20 04:07:10;;;;;;;24.52;14.20;;;;;;;10.82;77.95;99344.38;5053288;28;20037;-72
2023/05/20 04:09:37;;;;;;;20.73;12.48;;;;;;;10.78;78.07;99343.31;5053633;28;20021;-71
2023/05/20 04:12:02;;;;;;;20.50;12.52;;;;;;;10.75;77.97;99346.59;5053261;28;20029;-71
2023/05/20 04:14:28;;;;;;;20.88;12.50;;;;;;;10.74;77.78;99348.50;5053227;28;20029;-72
2023/05/20 04:16:53;;;;;;;20.40;12.48;;;;;;;10.74;78.67;99344.97;5053483;28;20016;-71
2023/05/20 04:19:19;;;;;;;18.33;10.52;;;;;;;10.71;79.01;99346.31;5050614;28;20123;-71
2023/05/20 04:21:44;;;;;;;15.90;10.20;;;;;;;10.66;79.20;99355.38;5055120;28;20409;-72
2023/05/20 04:24:10;;;;;;;14.52;9.65;;;;;;;10.63;78.42;99353.19;5051955;28;20249;-71
2023/05/20 04:26:36;;;;;;;17.35;10.73;;;;;;;10.64;78.50;99349.34;5052945;28;20044;-72
2023/05/20 04:29:03;;;;;;;14.77;10.02;;;;;;;10.67;78.78;99353.44;5053415;28;20036;-71
2023/05/20 04:31:31;;;;;;;15.40;9.18;;;;;;;10.66;78.80;99354.53;5052988;28;20021;-72
2023/05/20 04:33:57;;;;;;;14.60;8.85;;;;;;;10.67;78.67;99347.97;5052796;28;20033;-72
2023/05/20 04:36:27;;;;;;;14.23;8.93;;;;;;;10.71;78.40;99354.53;5052768;28;20116;-72
2023/05/20 04:38:53;;;;;;;13.10;8.45;;;;;;;10.72;78.92;99350.69;5049440;28;20378;-71
2023/05/20 04:41:18;;;;;;;15.48;9.68;;;;;;;10.77;78.95;99355.38;5052741;28;20527;-72
2023/05/20 04:43:44;;;;;;;13.95;9.73;;;;;;;10.78;78.46;99351.53;5052676;28;20117;-71
2023/05/20 04:46:10;;;;;;;14.43;9.50;;;;;;;10.82;79.17;99355.34;5052915;28;20025;-71
2023/05/20 04:48:36;;;;;;;11.10;8.05;;;;;;;10.84;79.46;99353.16;5052607;28;20043;-71
2023/05/20 04:51:01;;;;;;;11.73;8.00;;;;;;;10.85;79.03;99352.91;5052660;28;20071;-73
2023/05/20 04:53:29;;;;;;;10.60;7.50;;;;;;;10.89;78.66;99355.09;5052480;28;20021;-72
2023/05/20 04:55:55;;;;;;;9.52;7.18;;;;;;;10.92;79.34;99349.84;5052686;28;20028;-72
2023/05/20 04:58:23;;;;;;;10.93;7.68;;;;;;;10.93;78.78;99351.50;5052401;28;20029;-71
2023/05/20 05:00:49;;;;;;;10.73;7.53;;;;;;;10.95;79.28;99345.75;5052198;28;20466;-71
2023/05/20 05:03:15;;;;;;;10.68;7.82;;;;;;;10.95;78.98;99341.06;5051252;28;20477;-71
2023/05/20 05:05:41;;;;;;;10.95;8.15;;;;;;;11.01;79.25;99342.72;5052325;28;20103;-72
2023/05/20 05:08:07;;;;;;;11.48;7.78;;;;;;;11.04;78.90;99346.00;5052178;28;20358;-71
2023/05/20 05:10:33;;;;;;;11.35;7.72;;;;;;;11.06;79.46;99350.09;5052203;28;20013;-72
2023/05/20 05:12:58;;;;;;;9.95;7.32;;;;;;;11.10;78.84;99350.38;5052447;28;20416;-72
2023/05/20 05:15:24;;;;;;;9.20;6.93;;;;;;;11.16;79.41;99352.03;5052069;28;20070;-72
2023/05/20 05:17:50;;;;;;;10.45;6.95;;;;;;;11.23;79.26;99354.47;5052192;28;20063;-71
2023/05/20 05:20:16;;;;;;;8.43;6.25;;;;;;;11.30;79.52;99360.50;5052210;28;20021;-71
2023/05/20 05:22:41;;;;;;;8.57;6.20;;;;;;;11.34;78.96;99363.50;5052579;28;20147;-71
2023/05/20 05:25:07;;;;;;;7.93;6.40;;;;;;;11.38;79.24;99351.69;5052050;28;20469;-71
2023/05/20 05:27:34;;;;;;;7.97;6.28;;;;;;;11.43;78.76;99354.41;5052087;28;20107;-72
2023/05/20 05:29:59;;;;;;;7.68;6.53;;;;;;;11.49;79.20;99348.88;5051917;28;20380;-72
2023/05/20 05:32:24;;;;;;;7.60;5.72;;;;;;;11.55;78.96;99348.63;5051161;28;20021;-71
2023/05/20 05:34:50;;;;;;;7.78;5.35;;;;;;;11.62;79.07;99349.09;5051868;28;20025;-72
2023/05/20 05:37:15;;;;;;;7.63;5.47;;;;;;;11.70;79.08;99346.88;5051725;28;20070;-72
2023/05/20 05:39:41;;;;;;;7.93;5.32;;;;;;;11.77;79.29;99345.50;5051612;28;20116;-72
2023/05/20 05:42:06;;;;;;;7.40;5.65;;;;;;;11.83;78.98;99349.03;5051655;28;20135;-72
2023/05/20 05:44:32;;;;;;;6.72;4.93;;;;;;;11.91;78.62;99339.34;5051855;28;20060;-71
2023/05/20 05:46:57;;;;;;;6.57;4.93;;;;;;;11.97;78.66;99343.72;5051744;28;20355;-72
2023/05/20 05:49:23;;;;;;;6.53;5.18;;;;;;;12.03;78.64;99334.38;5051838;28;20037;-72
2023/05/20 05:51:50;;;;;;;7.20;5.35;;;;;;;12.09;78.92;99337.09;5051587;28;20029;-72
2023/05/20 05:54:16;;;;;;;7.80;5.40;;;;;;;12.14;78.64;99332.38;5047560;28;20056;-72
2023/05/20 05:56:41;;;;;;;7.00;5.25;;;;;;;12.24;78.47;99330.66;5051414;28;20021;-71
2023/05/20 05:59:06;;;;;;;7.88;5.57;;;;;;;12.30;78.23;99333.09;5051279;28;20036;-72
2023/05/20 06:01:32;;;;;;;8.13;5.72;;;;;;;12.38;78.67;99325.34;5051508;28;20023;-72
2023/05/20 06:03:58;;;;;;;7.13;5.40;;;;;;;12.45;78.27;99332.16;5051155;28;20021;-72
2023/05/20 06:06:23;;;;;;;10.60;7.13;;;;;;;12.49;78.41;99327.72;5051060;28;20484;-72
2023/05/20 06:08:48;;;;;;;9.75;7.38;;;;;;;12.51;78.40;99320.00;5050007;28;20091;-72
2023/05/20 06:11:14;;;;;;;9.45;8.45;;;;;;;12.51;78.07;99320.00;5051112;28;20086;-71
2023/05/20 06:13:39;;;;;;;10.40;7.97;;;;;;;12.56;78.23;99324.66;5051040;28;20027;-71
2023/05/20 06:16:05;;;;;;;15.40;11.05;;;;;;;12.55;78.19;99322.16;5051022;28;20037;-72
2023/05/20 06:18:30;;;;;;;21.23;12.88;;;;;;;12.56;77.77;99324.66;5051024;28;20123;-72
2023/05/20 06:20:56;;;;;;;32.17;21.08;;;;;;;12.54;77.76;99337.88;5050945;28;20024;-72
2023/05/20 06:23:22;;;;;;;36.75;22.65;;;;;;;12.57;78.06;99331.78;5051108;28;20025;-71
2023/05/20 06:25:48;;;;;;;52.40;28.90;;;;;;;12.60;77.85;99336.72;5050924;28;20029;-72
2023/05/20 06:28:13;;;;;;;70.75;35.38;;;;;;;12.63;77.55;99341.63;5050809;28;20028;-72
2023/05/20 06:30:40;;;;;;;30.52;15.55;;;;;;;12.65;77.82;99336.66;5050355;28;20028;-71
2023/05/20 06:33:05;;;;;;;16.50;10.07;;;;;;;12.70;77.68;99338.56;5051113;28;20029;-72
2023/05/20 06:35:33;;;;;;;25.50;15.13;;;;;;;12.79;77.59;99330.50;5049973;28;20040;-71
2023/05/20 06:38:00;;;;;;;37.92;22.50;;;;;;;12.85;77.58;99340.34;5048877;28;20017;-72
2023/05/20 06:40:26;;;;;;;59.60;36.28;;;;;;;12.89;77.66;99340.56;5050540;28;20516;-71
2023/05/20 06:42:51;;;;;;;47.22;30.77;;;;;;;12.89;77.57;99341.41;5051027;28;20025;-70
2023/05/20 06:45:16;;;;;;;21.58;16.13;;;;;;;12.89;77.26;99343.34;5050705;28;20033;-70
2023/05/20 06:47:42;;;;;;;14.25;11.93;;;;;;;12.92;77.07;99340.84;5050948;28;20400;-70
2023/05/20 06:50:08;;;;;;;12.70;8.88;;;;;;;12.98;77.26;99340.78;5049691;28;20017;-70
2023/05/20 06:52:33;;;;;;;10.23;7.75;;;;;;;13.02;77.26;99333.59;5051190;28;20016;-70
2023/05/20 06:54:58;;;;;;;9.85;7.53;;;;;;;13.04;77.07;99334.94;5050164;28;20087;-70
2023/05/20 06:57:24;;;;;;;10.15;8.15;;;;;;;13.09;77.13;99325.78;5050525;28;20025;-70
2023/05/20 06:59:49;;;;;;;12.15;8.63;;;;;;;13.15;76.94;99329.31;5050136;28;20032;-69
2023/05/20 07:02:15;;;;;;;10.30;7.47;;;;;;;13.24;77.08;99324.81;5049523;28;20061;-70
2023/05/20 07:04:40;;;;;;;13.18;8.85;;;;;;;13.31;76.94;99319.75;5048946;28;20477;-69
2023/05/20 07:07:06;;;;;;;13.43;9.27;;;;;;;13.42;76.89;99319.66;5055768;28;20037;-71
2023/05/20 07:09:31;;;;;;;10.77;7.65;;;;;;;13.52;76.87;99319.56;5050650;28;20017;-70
2023/05/20 07:11:56;;;;;;;10.88;7.40;;;;;;;13.60;76.29;99324.41;5050782;28;20025;-72
2023/05/20 07:14:22;;;;;;;13.98;8.82;;;;;;;13.65;76.36;99312.50;5052726;28;20515;-70
2023/05/20 07:16:47;;;;;;;11.82;8.20;;;;;;;13.72;76.54;99307.44;5050906;28;20025;-77
2023/05/20 07:19:12;;;;;;;11.77;7.80;;;;;;;13.80;76.30;99311.47;5050904;28;20056;-77
2023/05/20 07:21:38;;;;;;;10.68;8.38;;;;;;;13.87;76.50;99311.94;5051269;28;20405;-72
2023/05/20 07:24:03;;;;;;;11.23;8.35;;;;;;;13.89;75.98;99312.44;5052020;28;20124;-72
2023/05/20 07:26:32;;;;;;;11.90;8.63;;;;;;;13.92;75.55;99309.09;5059557;28;20028;-71
2023/05/20 07:28:58;;;;;;;12.38;8.70;;;;;;;13.97;75.85;99311.78;5055359;28;20492;-73
2023/05/20 07:31:25;;;;;;;10.95;8.30;;;;;;;14.03;75.76;99315.28;5050591;28;20083;-72
2023/05/20 07:33:51;;;;;;;11.13;8.07;;;;;;;14.10;75.68;99320.41;5036957;28;20033;-72
2023/05/20 07:36:16;;;;;;;10.38;7.32;;;;;;;14.17;75.51;99318.09;5040697;28;20090;-71
2023/05/20 07:38:41;;;;;;;10.65;8.02;;;;;;;14.17;75.48;99309.03;5047979;28;20470;-73
2023/05/20 07:41:07;;;;;;;10.98;8.30;;;;;;;14.21;75.38;99308.13;5049168;28;20351;-73
2023/05/20 07:43:32;;;;;;;11.80;8.70;;;;;;;14.28;75.29;99304.97;5046767;28;20438;-73
2023/05/20 07:45:58;;;;;;;11.10;8.68;;;;;;;14.33;75.29;99299.38;5048541;28;20505;-74
2023/05/20 07:48:23;;;;;;;9.35;7.57;;;;;;;14.42;75.20;99296.75;5049181;28;20033;-74
2023/05/20 07:50:49;;;;;;;9.93;7.93;;;;;;;14.51;75.18;99299.66;5048640;28;20470;-73
2023/05/20 07:53:14;;;;;;;9.77;7.72;;;;;;;14.63;74.85;99296.41;5048403;28;20061;-72
2023/05/20 07:55:39;;;;;;;9.02;7.68;;;;;;;14.73;74.44;99297.06;5051946;28;20020;-72
2023/05/20 07:58:05;;;;;;;9.38;6.95;;;;;;;14.85;74.65;99304.06;5054473;28;20833;-70
2023/05/20 08:00:30;;;;;;;9.25;7.25;;;;;;;14.99;74.44;99299.38;5055368;28;20442;-69
2023/05/20 08:02:56;;;;;;;8.88;7.13;;;;;;;15.11;74.33;99293.34;5054130;28;20492;-73
2023/05/20 08:05:22;;;;;;;9.52;7.38;;;;;;;15.23;74.36;99292.03;5057665;28;20033;-73
2023/05/20 08:07:47;;;;;;;9.43;7.00;;;;;;;15.30;73.93;99293.25;5053531;28;20128;-73
2023/05/20 08:10:13;;;;;;;9.93;7.60;;;;;;;15.38;72.98;99294.47;5056319;28;20421;-73
2023/05/20 08:12:38;;;;;;;9.32;7.15;;;;;;;15.43;73.33;99297.13;5053942;28;20330;-73
2023/05/20 08:15:05;;;;;;;8.68;7.22;;;;;;;15.51;73.51;99292.00;5055495;28;20103;-70
2023/05/20 08:17:31;;;;;;;8.65;7.25;;;;;;;15.61;73.00;99291.78;5054071;28;20056;-71
2023/05/20 08:19:56;;;;;;;9.77;7.38;;;;;;;15.69;72.87;99293.00;5054628;28;21003;-71
2023/05/20 08:22:22;;;;;;;7.80;6.97;;;;;;;15.74;71.59;99293.69;5053982;28;20028;-71
2023/05/20 08:24:47;;;;;;;9.85;6.85;;;;;;;15.76;72.34;99288.69;5052794;28;20410;-70
2023/05/20 08:27:12;;;;;;;10.65;7.60;;;;;;;15.84;71.48;99287.16;5054151;28;20059;-73
2023/05/20 08:29:38;;;;;;;10.23;7.65;;;;;;;15.89;71.22;99286.22;5059363;28;20029;-72
2023/05/20 08:32:03;;;;;;;11.98;8.70;;;;;;;15.92;71.24;99280.88;5053133;28;20040;-74
2023/05/20 08:34:29;;;;;;;9.25;7.75;;;;;;;15.99;70.85;99276.88;5051633;28;20040;-71
2023/05/20 08:36:56;;;;;;;9.40;6.72;;;;;;;16.06;70.23;99280.84;5052737;28;20021;-72
2023/05/20 08:39:22;;;;;;;10.60;7.47;;;;;;;16.17;71.08;99269.53;5051023;28;20081;-73
2023/05/20 08:41:47;;;;;;;10.40;7.63;;;;;;;16.32;70.93;99273.88;5053510;28;20102;-72
2023/05/20 08:44:13;;;;;;;9.80;8.07;;;;;;;16.46;70.37;99268.28;5052912;28;20315;-73
2023/05/20 08:46:40;;;;;;;13.05;8.90;;;;;;;16.55;70.98;99260.81;5054477;28;20138;-73
2023/05/20 08:49:06;;;;;;;11.05;7.68;;;;;;;16.66;70.23;99259.44;5052652;28;20107;-73
2023/05/20 08:51:34;;;;;;;10.20;7.63;;;;;;;16.81;70.35;99265.72;5048709;28;20481;-72
2023/05/20 08:54:00;;;;;;;8.55;7.43;;;;;;;16.98;70.77;99272.47;5052471;28;20036;-73
2023/05/20 08:56:26;;;;;;;9.23;7.03;;;;;;;17.13;69.82;99274.84;5050973;28;20509;-74
2023/05/20 08:58:52;;;;;;;9.60;7.97;;;;;;;17.21;69.54;99264.91;5052394;28;20029;-73
2023/05/20 09:01:18;;;;;;;10.85;8.40;;;;;;;17.31;68.88;99266.59;5051122;28;20428;-72
2023/05/20 09:03:43;;;;;;;9.82;8.02;;;;;;;17.38;68.76;99262.22;5051333;28;20025;-72
2023/05/20 09:06:09;;;;;;;10.57;8.13;;;;;;;17.44;68.88;99257.31;5046977;28;20470;-72
2023/05/20 09:08:34;;;;;;;10.65;8.27;;;;;;;17.55;68.62;99258.66;5052407;28;20036;-72
2023/05/20 09:11:00;;;;;;;10.70;8.13;;;;;;;17.68;68.54;99256.06;5050746;28;20025;-73
2023/05/20 09:13:26;;;;;;;9.38;7.60;;;;;;;17.77;68.64;99258.84;5051990;28;20131;-74
2023/05/20 09:15:52;;;;;;;8.02;7.00;;;;;;;17.88;68.60;99260.16;5055593;28;20435;-73
2023/05/20 09:18:17;;;;;;;14.07;9.80;;;;;;;17.94;67.99;99267.16;5056151;28;20021;-75
2023/05/20 09:20:46;;;;;;;10.38;8.15;;;;;;;18.02;68.03;99265.59;5053661;28;20083;-74
2023/05/20 09:23:11;;;;;;;12.32;8.38;;;;;;;18.09;67.26;99249.25;5048358;28;20025;-73
2023/05/20 09:25:37;;;;;;;9.32;7.70;;;;;;;18.14;66.73;99253.81;5049500;28;20187;-72
2023/05/20 09:28:07;;;;;;;13.48;8.15;;;;;;;18.12;66.77;99253.34;5051175;28;20017;-71
2023/05/20 09:30:33;;;;;;;12.35;8.48;;;;;;;17.93;67.61;99253.63;5052130;28;20103;-70
2023/05/20 09:32:59;;;;;;;12.00;8.88;;;;;;;17.85;67.96;99244.97;5051791;28;20525;-70
2023/05/20 09:35:26;;;;;;;10.63;8.38;;;;;;;17.76;67.84;99235.81;5051336;28;20109;-69
2023/05/20 09:37:53;;;;;;;10.98;8.43;;;;;;;17.73;68.07;99242.00;5052594;28;20473;-70
2023/05/20 09:40:23;;;;;;;14.50;9.70;;;;;;;17.67;68.41;99240.56;5050695;28;20119;-69
2023/05/20 09:43:03;;;;;;;11.20;8.85;;;;;;;17.61;68.39;99228.78;5050825;28;20046;-69
2023/05/20 09:45:29;;;;;;;10.70;8.60;;;;;;;17.58;68.08;99223.09;5046474;28;20507;-69
2023/05/20 09:47:55;;;;;;;14.43;10.00;;;;;;;17.58;68.60;99225.88;5051197;28;20096;-70
2023/05/20 09:50:22;;;;;;;14.57;9.80;;;;;;;17.60;68.59;99221.63;5051201;28;20370;-69
2023/05/20 09:52:49;;;;;;;15.95;9.95;;;;;;;17.61;68.77;99228.78;5051312;28;20025;-69
2023/05/20 09:55:16;;;;;;;15.05;10.93;;;;;;;17.64;69.08;99225.38;5051379;28;20019;-67
2023/05/20 09:57:42;;;;;;;23.65;14.40;;;;;;;17.69;69.17;99225.22;5051040;28;20024;-67
2023/05/20 10:00:07;;;;;;;17.63;11.57;;;;;;;17.78;69.29;99233.53;5050997;28;20025;-68
2023/05/20 10:02:34;;;;;;;28.92;19.33;;;;;;;17.86;69.25;99218.06;5047615;28;20048;-67
2023/05/20 10:05:06;;;;;;;15.70;12.90;;;;;;;17.96;69.14;99225.22;5048034;28;20028;-69
2023/05/20 10:07:48;;;;;;;17.25;10.73;;;;;;;18.03;69.36;99228.38;5046493;28;20033;-67
2023/05/20 10:10:43;;;;;;;16.08;11.27;;;;;;;18.14;69.54;99224.09;5050678;28;20028;-67
2023/05/20 10:13:14;;;;;;;14.32;10.48;;;;;;;18.23;69.35;99221.31;5047409;28;20115;-67
2023/05/20 10:15:49;;;;;;;14.98;11.02;;;;;;;18.29;69.42;99228.34;5048930;28;20029;-67
2023/05/20 10:18:36;;;;;;;12.85;9.57;;;;;;;18.35;69.04;99223.41;5049997;28;20371;-69
2023/05/20 10:21:02;;;;;;;17.80;11.55;;;;;;;18.40;68.88;99227.97;5050440;28;20033;-67
2023/05/20 10:23:29;;;;;;;16.77;12.25;;;;;;;18.42;68.67;99217.34;5050155;28;20388;-67
2023/05/20 10:25:56;;;;;;;15.25;11.98;;;;;;;18.45;68.68;99223.06;5051462;28;20029;-67
2023/05/20 10:28:32;;;;;;;13.25;10.70;;;;;;;18.50;68.89;99218.50;5049970;28;20082;-67
2023/05/20 10:30:59;;;;;;;12.98;10.65;;;;;;;18.57;68.83;99210.44;5048741;28;20035;-67
2023/05/20 10:33:29;;;;;;;16.63;12.95;;;;;;;18.65;69.04;99211.59;5050035;28;20029;-66
2023/05/20 10:35:58;;;;;;;15.77;12.18;;;;;;;18.73;68.53;99205.19;5050506;28;20044;-66
2023/05/20 10:38:24;;;;;;;;;;;;;;;18.82;68.79;99205.94;5051001;28;20025;-67
2023/05/20 10:40:49;;;;;;;15.07;11.07;;;;;;;18.87;68.98;99200.22;5048675;28;20343;-67
2023/05/20 10:43:24;;;;;;;17.25;12.70;;;;;;;18.97;69.18;99201.81;5049672;28;20056;-67
2023/05/20 10:45:57;;;;;;;19.60;13.57;;;;;;;19.13;69.29;99195.69;5050465;28;20111;-74
2023/05/20 10:48:23;;;;;;;19.88;13.50;;;;;;;19.28;69.36;99199.84;5051403;28;20037;-76
2023/05/20 10:50:49;;;;;;;16.17;11.75;;;;;;;19.38;68.81;99201.44;5050452;28;20077;-74
2023/05/20 10:53:15;;;;;;;15.57;11.25;;;;;;;19.45;68.79;99201.72;5047284;28;20025;-72
2023/05/20 10:55:48;;;;;;;15.02;10.75;;;;;;;19.51;68.74;99196.78;5044786;28;20059;-69
2023/05/20 10:58:13;;;;;;;13.02;10.20;;;;;;;19.56;68.52;99200.16;5046609;28;20114;-70
2023/05/20 11:00:39;;;;;;;13.38;10.50;;;;;;;19.62;68.11;99189.63;5051384;28;20063;-71
2023/05/20 11:03:06;;;;;;;14.23;11.15;;;;;;;19.66;68.21;99195.34;5047010;28;20025;-70
2023/05/20 11:05:32;;;;;;;13.25;10.38;;;;;;;19.72;68.20;99183.66;5037750;28;20635;-73
2023/05/20 11:08:05;;;;;;;14.55;11.55;;;;;;;19.82;68.16;99178.84;5050386;28;20033;-74
2023/05/20 11:10:32;;;;;;;19.50;13.38;;;;;;;19.90;67.35;99175.22;5047198;28;20059;-73
2023/05/20 11:12:59;;;;;;;13.20;11.63;;;;;;;19.96;67.21;99179.41;5048748;28;20452;-72
2023/05/20 11:15:25;;;;;;;17.48;11.60;;;;;;;19.99;67.42;99170.34;5055924;28;20026;-72
2023/05/20 11:17:53;;;;;;;13.60;11.38;;;;;;;20.05;67.27;99162.63;5050211;28;20113;-72